Time;durP1;ratioP1;P1;durP2;ratioP2;P2;SDS_P1;SDS_P2;PMS_P1;PMS_P2;Temp;Humidity;BMP_temperature;BMP_pressure;BME280_temperature;BME280_humidity;BME280_pressure;Samples;Min_cycle;Max_cycle;Signal;HPM_P1;HPM_P2
2021/12/08 00:00:06;;;;;;;11.88;4.18;;;4.10;99.90;;;;;;4991708;28;20049;-50
2021/12/08 00:02:32;;;;;;;14.40;3.75;;;4.00;99.90;;;;;;5008495;28;20060;-52
2021/12/08 00:04:57;;;;;;;13.77;4.18;;;4.20;99.90;;;;;;4974238;28;20033;-50
2021/12/08 00:07:23;;;;;;;9.43;3.92;;;4.10;99.90;;;;;;5009898;28;20524;-51
2021/12/08 00:10:01;;;;;;;10.80;3.85;;;4.10;99.90;;;;;;5006402;28;20073;-47
2021/12/08 00:15:11;;;;;;;9.98;3.83;;;4.10;99.90;;;;;;5011033;28;20136;-49
2021/12/08 00:17:37;;;;;;;9.30;3.95;;;3.90;99.90;;;;;;5002544;28;20101;-48
2021/12/08 00:20:04;;;;;;;10.75;3.97;;;4.00;99.90;;;;;;4993214;28;20046;-50
2021/12/08 00:22:30;;;;;;;7.22;3.05;;;4.10;99.90;;;;;;5006506;28;20111;-52
2021/12/08 00:24:56;;;;;;;8.60;3.83;;;4.10;99.90;;;;;;5030219;22;20069;-54
2021/12/08 00:27:22;;;;;;;13.55;4.80;;;4.10;99.90;;;;;;5046158;28;20048;-54
2021/12/08 00:29:47;;;;;;;8.13;3.65;;;4.10;99.90;;;;;;5046485;28;20044;-51
2021/12/08 00:32:13;;;;;;;8.65;4.10;;;4.10;99.90;;;;;;5045822;28;20037;-51
2021/12/08 00:34:39;;;;;;;8.63;3.45;;;4.10;99.90;;;;;;5035624;28;20041;-51
2021/12/08 00:37:06;;;;;;;9.10;3.90;;;4.00;99.90;;;;;;5030251;28;20072;-52
2021/12/08 00:39:32;;;;;;;11.93;4.18;;;4.10;99.90;;;;;;5030348;28;20088;-54
2021/12/08 00:41:58;;;;;;;8.55;3.45;;;4.10;99.90;;;;;;5030105;28;20103;-52
2021/12/08 00:44:23;;;;;;;13.63;3.90;;;4.20;99.90;;;;;;5027278;28;20068;-51
2021/12/08 00:46:49;;;;;;;10.38;3.97;;;4.10;99.90;;;;;;5030327;28;20095;-53
2021/12/08 00:49:16;;;;;;;6.20;3.08;;;4.10;99.90;;;;;;5027140;28;20038;-54
2021/12/08 00:51:42;;;;;;;6.90;3.80;;;4.10;99.90;;;;;;5027205;28;20124;-51
2021/12/08 00:54:08;;;;;;;7.95;3.83;;;4.10;99.90;;;;;;5029432;28;20500;-52
2021/12/08 00:56:33;;;;;;;11.38;4.22;;;4.10;99.90;;;;;;5030115;28;20497;-51
2021/12/08 00:58:59;;;;;;;7.75;2.88;;;4.10;99.90;;;;;;5029803;28;20072;-52
2021/12/08 01:01:25;;;;;;;13.85;4.45;;;4.20;99.90;;;;;;5029939;28;20034;-51
2021/12/08 01:03:51;;;;;;;8.10;4.00;;;4.20;99.90;;;;;;5022497;28;20478;-51
2021/12/08 01:06:17;;;;;;;9.25;4.40;;;4.30;99.90;;;;;;5029862;28;20152;-51
2021/12/08 01:08:44;;;;;;;10.63;3.53;;;4.30;99.90;;;;;;5026644;28;20198;-52
2021/12/08 01:11:13;;;;;;;9.50;4.20;;;4.30;99.90;;;;;;5028177;28;20061;-53
2021/12/08 01:13:39;;;;;;;12.18;4.55;;;4.30;99.90;;;;;;5033718;28;20499;-53
2021/12/08 01:16:05;;;;;;;7.50;3.05;;;4.40;99.90;;;;;;5026394;28;20034;-51
2021/12/08 01:18:32;;;;;;;12.02;4.65;;;4.30;99.90;;;;;;5033756;28;20030;-52
2021/12/08 01:21:00;;;;;;;8.43;3.65;;;4.30;99.90;;;;;;5027310;28;20041;-51
2021/12/08 01:23:27;;;;;;;10.10;4.13;;;4.40;99.90;;;;;;5033060;28;20029;-52
2021/12/08 01:25:54;;;;;;;11.73;4.43;;;4.40;99.90;;;;;;5033624;28;20175;-52
2021/12/08 01:28:21;;;;;;;9.30;4.50;;;4.30;99.90;;;;;;5033001;28;20500;-53
2021/12/08 01:30:49;;;;;;;10.57;4.03;;;4.30;99.90;;;;;;5033878;28;20515;-51
2021/12/08 01:33:17;;;;;;;10.20;4.78;;;4.30;99.90;;;;;;5032764;28;20042;-52
2021/12/08 01:35:42;;;;;;;8.65;3.47;;;4.30;99.90;;;;;;5030243;28;20052;-52
2021/12/08 01:38:08;;;;;;;10.32;4.20;;;4.30;99.90;;;;;;5033763;28;20037;-52
2021/12/08 01:40:34;;;;;;;11.15;4.90;;;4.30;99.90;;;;;;5033132;28;20068;-51
2021/12/08 01:43:02;;;;;;;9.40;4.30;;;4.20;99.90;;;;;;5033607;28;20063;-52
2021/12/08 01:48:18;;;;;;;9.05;4.35;;;4.30;99.90;;;;;;5028664;28;20053;-53
2021/12/08 01:50:47;;;;;;;10.73;4.78;;;4.30;99.90;;;;;;5030918;28;20029;-54
2021/12/08 01:53:14;;;;;;;11.05;4.65;;;4.30;99.90;;;;;;5033101;28;20534;-53
2021/12/08 01:55:40;;;;;;;8.70;4.85;;;4.30;99.90;;;;;;5033009;28;20033;-52
2021/12/08 01:58:07;;;;;;;15.02;4.65;;;4.20;99.90;;;;;;5032800;28;20041;-52
2021/12/08 02:00:38;;;;;;;9.23;4.05;;;4.20;99.90;;;;;;5032640;28;20048;-51
2021/12/08 02:03:04;;;;;;;9.80;4.70;;;4.30;99.90;;;;;;5032488;28;20573;-53
2021/12/08 02:05:30;;;;;;;9.77;4.95;;;4.30;99.90;;;;;;5032728;28;20436;-54
2021/12/08 02:07:56;;;;;;;7.50;3.60;;;4.30;99.90;;;;;;5032898;28;20042;-52
2021/12/08 02:10:22;;;;;;;10.65;4.57;;;4.40;99.90;;;;;;5032941;28;20083;-54
2021/12/08 02:12:48;;;;;;;9.57;4.70;;;4.50;99.90;;;;;;5032256;28;20037;-51
2021/12/08 02:15:16;;;;;;;10.95;4.78;;;4.40;99.90;;;;;;5032312;28;20123;-51
2021/12/08 02:17:45;;;;;;;9.77;4.53;;;4.40;99.90;;;;;;5028700;28;20049;-51
2021/12/08 02:20:12;;;;;;;12.85;4.97;;;4.50;99.90;;;;;;5030129;28;20033;-53
2021/12/08 02:22:38;;;;;;;10.23;4.82;;;4.50;99.90;;;;;;5032268;28;20125;-52
2021/12/08 02:25:09;;;;;;;8.80;4.88;;;4.50;99.90;;;;;;5031948;28;20484;-51
2021/12/08 02:27:35;;;;;;;10.90;4.82;;;4.50;99.90;;;;;;5032427;28;20033;-52
2021/12/08 02:30:15;;;;;;;13.02;4.68;;;4.40;99.90;;;;;;5030984;28;20048;-52
2021/12/08 02:48:58;;;;;;;9.00;4.85;;;4.60;99.90;;;;;;5030360;28;20038;-55
2021/12/08 02:51:23;;;;;;;8.85;5.40;;;4.70;99.90;;;;;;5032155;28;20056;-55
2021/12/08 02:53:49;;;;;;;9.35;5.60;;;4.60;99.90;;;;;;5030446;28;20409;-55
2021/12/08 02:56:16;;;;;;;12.07;6.15;;;4.60;99.90;;;;;;5031704;28;20075;-55
2021/12/08 02:58:42;;;;;;;8.20;5.78;;;4.60;99.90;;;;;;5029940;28;20477;-55
2021/12/08 03:01:10;;;;;;;10.13;5.43;;;4.70;99.90;;;;;;5032003;28;20044;-55
2021/12/08 03:03:39;;;;;;;9.90;6.07;;;4.70;99.90;;;;;;5032090;28;20052;-55
2021/12/08 03:06:05;;;;;;;10.98;6.07;;;4.70;99.90;;;;;;5026204;28;20099;-55
2021/12/08 03:08:30;;;;;;;11.35;6.50;;;4.70;99.90;;;;;;5031688;28;20438;-52
2021/12/08 03:10:57;;;;;;;10.40;6.75;;;4.70;99.90;;;;;;5031803;28;20123;-55
2021/12/08 03:13:31;;;;;;;10.18;7.05;;;4.70;99.90;;;;;;5026835;28;20092;-55
2021/12/08 03:15:58;;;;;;;12.63;7.55;;;4.80;99.90;;;;;;5026566;28;20412;-52
2021/12/08 03:18:31;;;;;;;13.65;6.97;;;4.80;99.90;;;;;;5028742;28;20146;-55
2021/12/08 03:20:57;;;;;;;10.55;7.63;;;4.80;99.90;;;;;;5029983;28;20085;-55
2021/12/08 03:23:29;;;;;;;14.32;7.60;;;4.80;99.90;;;;;;5031167;28;20069;-55
2021/12/08 03:25:57;;;;;;;15.55;7.43;;;4.80;99.90;;;;;;5031245;28;20116;-55
2021/12/08 03:28:28;;;;;;;13.82;8.07;;;4.90;99.90;;;;;;5030701;28;20498;-56
2021/12/08 03:31:02;;;;;;;14.68;8.68;;;4.80;99.90;;;;;;5031723;28;20406;-55
2021/12/08 03:33:27;;;;;;;14.60;8.68;;;4.80;99.90;;;;;;5030520;28;20449;-55
2021/12/08 03:35:55;;;;;;;12.30;7.68;;;4.80;99.90;;;;;;5031032;28;20048;-55
2021/12/08 03:38:21;;;;;;;10.57;7.63;;;4.90;99.90;;;;;;5030498;28;20033;-56
2021/12/08 03:40:50;;;;;;;13.90;8.20;;;4.90;99.90;;;;;;5028300;28;20049;-55
2021/12/08 03:43:16;;;;;;;12.60;8.52;;;4.90;99.90;;;;;;5031171;28;20088;-55
2021/12/08 03:45:47;;;;;;;15.27;8.40;;;4.90;99.90;;;;;;5030761;28;20045;-55
2021/12/08 03:48:27;;;;;;;12.13;7.25;;;4.90;99.90;;;;;;5030694;28;20041;-56
2021/12/08 03:50:54;;;;;;;15.05;7.10;;;4.90;99.90;;;;;;5027087;28;20029;-55
2021/12/08 03:53:20;;;;;;;11.32;7.85;;;4.90;99.90;;;;;;5028551;28;20124;-55
2021/12/08 03:55:49;;;;;;;12.68;7.35;;;4.90;99.90;;;;;;5024576;28;20132;-55
2021/12/08 03:58:15;;;;;;;12.25;7.47;;;4.90;99.90;;;;;;5028680;28;20045;-56
2021/12/08 04:00:42;;;;;;;10.98;7.55;;;4.90;99.90;;;;;;5026798;28;20516;-56
2021/12/08 04:03:09;;;;;;;14.70;7.43;;;4.90;99.90;;;;;;5030306;28;20488;-55
2021/12/08 04:08:17;;;;;;;12.10;7.78;;;4.90;99.90;;;;;;5030015;28;20529;-55
2021/12/08 04:10:46;;;;;;;13.27;7.88;;;4.90;99.90;;;;;;5031296;28;20124;-55
2021/12/08 04:13:12;;;;;;;13.20;7.88;;;5.00;99.90;;;;;;5030259;28;20041;-55
2021/12/08 04:15:38;;;;;;;11.63;7.80;;;5.00;99.90;;;;;;5030814;28;20041;-55
2021/12/08 04:18:03;;;;;;;13.63;7.90;;;5.00;99.90;;;;;;5030812;28;20046;-55
2021/12/08 04:20:38;;;;;;;12.52;7.22;;;5.10;99.90;;;;;;5028659;28;20037;-56
2021/12/08 04:23:07;;;;;;;18.05;9.27;;;5.10;99.90;;;;;;5026088;28;20131;-55
2021/12/08 04:25:35;;;;;;;12.98;7.75;;;5.10;99.90;;;;;;5030071;28;20090;-55
2021/12/08 04:28:08;;;;;;;14.27;7.47;;;5.30;99.90;;;;;;5030341;28;20075;-55
2021/12/08 04:30:42;;;;;;;13.70;6.68;;;5.30;99.90;;;;;;5029829;28;20048;-56
2021/12/08 04:33:08;;;;;;;12.15;7.28;;;5.40;99.90;;;;;;5030372;28;20041;-56
2021/12/08 04:35:35;;;;;;;12.75;6.75;;;5.50;99.90;;;;;;5028940;28;20033;-55
2021/12/08 04:38:06;;;;;;;12.55;7.57;;;5.50;99.90;;;;;;5030923;28;20042;-55
2021/12/08 04:43:14;;;;;;;12.55;7.32;;;5.50;99.90;;;;;;5030463;28;20417;-55
2021/12/08 04:45:54;;;;;;;12.98;6.63;;;5.60;99.90;;;;;;5027574;28;20065;-55
2021/12/08 05:08:14;;;;;;;11.75;6.03;;;5.70;99.90;;;;;;5029783;28;19943;-55
2021/12/08 05:10:09;;;;;;;16.08;6.13;;;5.70;99.90;;;;;;5025344;28;20107;-55
2021/12/08 05:12:37;;;;;;;9.43;5.82;;;5.70;99.90;;;;;;5034050;28;20033;-55
2021/12/08 05:15:31;;;;;;;11.32;6.78;;;5.70;99.90;;;;;;5030704;28;20029;-55
2021/12/08 05:18:18;;;;;;;12.32;6.70;;;5.70;99.90;;;;;;5027729;28;20742;-55
2021/12/08 05:21:12;;;;;;;11.35;5.80;;;5.60;99.90;;;;;;5031174;28;20378;-56
2021/12/08 05:23:48;;;;;;;10.43;5.95;;;5.60;99.90;;;;;;5033176;28;20044;-55
2021/12/08 05:26:20;;;;;;;11.20;6.22;;;5.60;99.90;;;;;;5027258;28;20045;-55
2021/12/08 05:28:48;;;;;;;13.03;6.20;;;5.60;99.90;;;;;;5031056;28;20090;-55
2021/12/08 05:31:22;;;;;;;10.18;6.35;;;5.60;99.90;;;;;;5030874;28;20287;-55
2021/12/08 05:33:48;;;;;;;17.10;6.35;;;5.60;99.90;;;;;;5023991;28;20034;-56
2021/12/08 05:36:14;;;;;;;12.40;5.97;;;5.60;99.90;;;;;;5030442;28;20518;-55
2021/12/08 05:38:40;;;;;;;11.77;5.57;;;5.50;99.90;;;;;;5032471;28;20365;-56
2021/12/08 05:41:26;;;;;;;11.77;5.72;;;5.50;99.90;;;;;;5033422;28;20068;-55
2021/12/08 05:43:52;;;;;;;10.02;5.65;;;5.50;99.90;;;;;;5030453;28;20034;-56
2021/12/08 05:46:21;;;;;;;12.13;5.50;;;5.60;99.90;;;;;;5033226;28;20405;-56
2021/12/08 05:48:48;;;;;;;9.48;5.22;;;5.50;99.90;;;;;;5029640;28;20052;-56
2021/12/08 05:51:19;;;;;;;11.55;5.25;;;5.60;99.90;;;;;;5033021;28;20044;-55
2021/12/08 05:53:49;;;;;;;12.30;5.68;;;5.60;99.90;;;;;;5025998;28;20040;-55
2021/12/08 05:56:17;;;;;;;10.88;4.70;;;5.50;99.90;;;;;;5028038;28;20041;-55
2021/12/08 05:58:45;;;;;;;12.07;5.00;;;5.40;99.90;;;;;;5032789;28;20049;-55
2021/12/08 06:01:17;;;;;;;8.50;4.60;;;5.40;99.90;;;;;;5031047;28;20116;-55
2021/12/08 06:03:44;;;;;;;15.02;4.80;;;5.40;99.90;;;;;;5030093;28;20088;-55
2021/12/08 06:06:11;;;;;;;11.32;4.88;;;5.40;99.90;;;;;;5032549;28;20034;-55
2021/12/08 06:08:37;;;;;;;13.93;5.00;;;5.40;99.90;;;;;;5029261;28;20099;-55
2021/12/08 06:11:04;;;;;;;12.35;4.90;;;5.40;99.90;;;;;;5033654;28;20452;-55
2021/12/08 06:13:31;;;;;;;13.23;4.60;;;5.40;99.90;;;;;;5031713;28;20046;-55
2021/12/08 06:15:57;;;;;;;11.60;4.63;;;5.30;99.90;;;;;;5024792;28;20037;-55
2021/12/08 06:18:26;;;;;;;11.52;4.45;;;5.30;99.90;;;;;;5029834;28;20512;-55
2021/12/08 06:20:57;;;;;;;12.02;4.57;;;5.30;99.90;;;;;;5027305;28;20218;-55
2021/12/08 06:23:23;;;;;;;7.13;4.22;;;5.40;99.90;;;;;;5022445;28;20493;-53
2021/12/08 06:25:49;;;;;;;9.55;3.80;;;5.40;99.90;;;;;;5023137;28;20037;-54
2021/12/08 06:28:15;;;;;;;7.93;4.43;;;5.40;99.90;;;;;;5077139;22;20048;-51
2021/12/08 06:30:45;;;;;;;9.68;4.07;;;5.30;99.90;;;;;;5010840;28;20037;-48
2021/12/08 06:33:13;;;;;;;9.48;4.30;;;5.30;99.90;;;;;;5026210;28;20041;-50
2021/12/08 06:35:45;;;;;;;10.48;4.07;;;5.30;99.90;;;;;;5030471;28;20124;-51
2021/12/08 06:38:11;;;;;;;10.10;4.50;;;5.30;99.90;;;;;;5025528;28;20041;-51
2021/12/08 06:40:43;;;;;;;11.63;4.35;;;5.30;99.90;;;;;;4993333;28;20092;-49
2021/12/08 06:43:13;;;;;;;11.10;4.67;;;5.30;99.90;;;;;;5001749;28;20042;-52
2021/12/08 06:45:42;;;;;;;11.02;4.28;;;5.30;99.90;;;;;;5006286;28;20050;-51
2021/12/08 06:48:12;;;;;;;7.93;4.20;;;5.20;99.90;;;;;;5003468;28;20518;-49
2021/12/08 06:51:02;;;;;;;12.02;3.80;;;5.30;99.90;;;;;;5006794;28;20053;-51
2021/12/08 06:53:29;;;;;;;9.20;3.60;;;5.30;99.90;;;;;;5006392;28;20050;-49
2021/12/08 06:56:19;;;;;;;8.88;3.85;;;5.30;99.90;;;;;;5004188;28;20037;-53
2021/12/08 06:58:49;;;;;;;6.40;3.38;;;5.40;99.90;;;;;;5006411;28;20509;-49
2021/12/08 07:07:00;;;;;;;8.65;3.53;;;5.30;99.90;;;;;;5010457;28;20049;-49
2021/12/08 07:09:37;;;;;;;8.95;3.33;;;5.20;99.90;;;;;;5003189;28;20104;-51
2021/12/08 07:12:26;;;;;;;8.48;3.50;;;5.20;99.90;;;;;;5004185;28;20030;-53
2021/12/08 07:15:00;;;;;;;11.48;3.67;;;5.30;99.90;;;;;;5008449;28;20140;-49
2021/12/08 07:17:31;;;;;;;9.80;3.65;;;5.20;99.90;;;;;;4997202;28;20034;-50
2021/12/08 07:20:13;;;;;;;10.25;3.47;;;5.20;99.90;;;;;;5005294;28;20052;-52
2021/12/08 07:22:40;;;;;;;8.07;3.67;;;5.20;99.90;;;;;;5010982;28;20033;-51
2021/12/08 07:25:07;;;;;;;8.95;3.67;;;5.30;99.90;;;;;;4999458;28;20050;-51
2021/12/08 07:27:35;;;;;;;7.63;3.70;;;5.30;99.90;;;;;;5000470;28;20450;-50
2021/12/08 07:30:08;;;;;;;8.48;3.42;;;5.30;99.90;;;;;;5002398;28;20057;-51
2021/12/08 07:32:36;;;;;;;10.52;3.80;;;5.30;99.90;;;;;;5000911;28;20046;-49
2021/12/08 07:35:16;;;;;;;11.23;3.40;;;5.30;99.90;;;;;;5011900;28;20034;-49
2021/12/08 07:37:42;;;;;;;12.80;3.40;;;5.30;99.90;;;;;;5005754;28;20125;-54
2021/12/08 07:40:20;;;;;;;7.07;3.13;;;5.30;99.90;;;;;;5008159;28;20042;-50
2021/12/08 07:42:50;;;;;;;10.18;2.53;;;5.30;99.90;;;;;;5007473;28;20049;-48
2021/12/08 07:51:57;;;;;;;8.48;2.85;;;5.40;99.90;;;;;;5832647;22;20025;-48
2021/12/08 07:54:24;;;;;;;7.35;2.78;;;5.40;99.90;;;;;;4983419;28;20041;-51
2021/12/08 07:56:53;;;;;;;8.63;2.90;;;5.30;99.90;;;;;;5010097;28;20441;-48
2021/12/08 07:59:21;;;;;;;12.93;3.42;;;5.30;99.90;;;;;;4982613;28;20038;-53
2021/12/08 08:01:56;;;;;;;9.85;3.10;;;5.30;99.90;;;;;;4989781;28;20398;-51
2021/12/08 08:04:25;;;;;;;9.20;3.05;;;5.30;99.90;;;;;;4997745;28;20053;-49
2021/12/08 08:13:07;;;;;;;8.65;2.72;;;5.30;99.90;;;;;;4990212;28;20049;-53
2021/12/08 08:15:37;;;;;;;5.68;2.30;;;5.40;99.90;;;;;;4991943;28;20129;-52
2021/12/08 08:18:08;;;;;;;13.38;2.55;;;5.40;99.90;;;;;;4986429;28;20563;-52
2021/12/08 08:20:38;;;;;;;9.77;2.33;;;5.40;99.90;;;;;;4990669;28;20046;-54
2021/12/08 08:23:04;;;;;;;9.18;2.53;;;5.40;99.90;;;;;;4991661;28;20092;-53
2021/12/08 08:25:35;;;;;;;10.13;2.33;;;5.40;99.90;;;;;;4990864;28;20030;-53
2021/12/08 08:28:02;;;;;;;9.68;2.38;;;5.40;99.90;;;;;;4990786;28;20045;-50
2021/12/08 08:30:35;;;;;;;11.30;2.33;;;5.40;99.90;;;;;;4991006;28;20088;-49
2021/12/08 08:33:01;;;;;;;8.68;2.13;;;5.40;99.90;;;;;;4991430;28;20049;-52
2021/12/08 08:35:46;;;;;;;6.97;2.35;;;5.40;99.90;;;;;;4991729;28;20414;-50
2021/12/08 08:38:27;;;;;;;10.07;2.22;;;5.40;99.90;;;;;;4990402;28;20046;-53
2021/12/08 08:40:58;;;;;;;8.30;2.38;;;5.40;99.90;;;;;;4988922;28;20046;-52
2021/12/08 08:43:25;;;;;;;9.20;2.30;;;5.40;99.90;;;;;;4990243;28;20046;-53
2021/12/08 08:46:01;;;;;;;8.98;2.17;;;5.50;99.90;;;;;;4991461;28;20133;-53
2021/12/08 08:48:35;;;;;;;7.57;2.08;;;5.50;99.90;;;;;;4985160;28;20102;-54
2021/12/08 08:51:12;;;;;;;7.18;2.33;;;5.50;99.90;;;;;;4992034;28;20062;-53
2021/12/08 08:53:41;;;;;;;9.73;2.72;;;5.60;99.90;;;;;;4991628;28;20034;-52
2021/12/08 08:56:29;;;;;;;11.13;3.13;;;5.60;99.90;;;;;;4991024;28;20125;-54
2021/12/08 08:59:00;;;;;;;10.98;2.33;;;5.50;99.90;;;;;;4984699;28;20446;-51
2021/12/08 09:01:30;;;;;;;11.32;2.13;;;5.60;99.90;;;;;;4991154;28;20054;-51
2021/12/08 09:04:20;;;;;;;10.38;2.60;;;5.70;99.90;;;;;;4973751;28;20076;-48
2021/12/08 09:06:50;;;;;;;11.80;2.58;;;5.60;99.90;;;;;;4990163;28;20038;-51
2021/12/08 09:09:22;;;;;;;7.90;2.40;;;5.60;99.90;;;;;;4990503;28;20038;-52
2021/12/08 09:11:54;;;;;;;14.18;2.88;;;5.70;99.90;;;;;;4969223;28;20046;-53
2021/12/08 09:14:26;;;;;;;10.23;2.42;;;5.70;99.90;;;;;;4991565;28;20057;-54
2021/12/08 09:17:19;;;;;;;10.07;2.42;;;5.70;99.90;;;;;;4991984;28;20053;-52
2021/12/08 09:19:49;;;;;;;;;;;5.70;99.90;;;;;;4982979;28;20058;-51
2021/12/08 09:22:22;;;;;;;8.73;2.60;;;5.70;99.90;;;;;;4987839;28;19976;-51
2021/12/08 09:24:59;;;;;;;10.30;3.13;;;5.70;99.90;;;;;;4984185;28;20039;-50
2021/12/08 09:27:33;;;;;;;12.52;2.72;;;5.80;99.90;;;;;;4971897;28;20206;-50
2021/12/08 09:30:07;;;;;;;8.10;2.53;;;5.70;99.90;;;;;;4975202;28;20069;-50
2021/12/08 09:33:08;;;;;;;11.35;2.75;;;5.70;99.90;;;;;;4993309;28;20045;-52
2021/12/08 09:35:49;;;;;;;12.77;2.85;;;5.80;99.90;;;;;;4977025;28;20125;-51
2021/12/08 09:38:21;;;;;;;11.70;2.40;;;5.80;99.90;;;;;;4992529;28;20125;-50
2021/12/08 09:41:01;;;;;;;12.95;2.67;;;5.80;99.90;;;;;;4991360;28;20038;-52
2021/12/08 09:43:34;;;;;;;8.52;2.50;;;5.80;99.90;;;;;;4994805;28;20042;-53
2021/12/08 09:46:08;;;;;;;9.18;2.92;;;5.80;99.90;;;;;;4994735;28;20085;-50
2021/12/08 09:48:38;;;;;;;14.13;3.60;;;5.90;99.90;;;;;;4994602;28;20045;-50
2021/12/08 09:51:04;;;;;;;10.10;2.72;;;5.90;99.90;;;;;;4994358;28;20034;-50
2021/12/08 09:53:30;;;;;;;11.80;2.92;;;5.90;99.90;;;;;;4976394;28;20130;-51
2021/12/08 09:55:56;;;;;;;13.40;2.78;;;6.00;99.90;;;;;;4993954;28;20125;-51
2021/12/08 09:58:22;;;;;;;9.85;3.45;;;6.00;99.90;;;;;;4994392;28;20034;-53
2021/12/08 10:00:53;;;;;;;14.52;3.30;;;6.10;99.90;;;;;;4993593;28;20272;-52
2021/12/08 10:03:18;;;;;;;15.63;2.95;;;6.10;99.90;;;;;;4992858;28;20091;-51
2021/12/08 10:05:44;;;;;;;14.10;3.97;;;6.10;99.90;;;;;;4992951;28;20039;-51
2021/12/08 10:08:10;;;;;;;10.43;2.70;;;6.10;99.90;;;;;;4992614;28;20119;-50
2021/12/08 10:10:40;;;;;;;10.98;2.92;;;6.10;99.90;;;;;;4993343;28;20042;-51
2021/12/08 10:13:06;;;;;;;15.40;3.40;;;6.10;99.90;;;;;;4985733;28;20054;-52
2021/12/08 10:15:32;;;;;;;9.93;2.83;;;6.10;99.90;;;;;;4991673;28;20436;-52
2021/12/08 10:17:59;;;;;;;11.15;3.30;;;6.10;99.90;;;;;;4993154;28;20049;-53
2021/12/08 10:20:32;;;;;;;11.90;2.95;;;6.20;99.90;;;;;;4992268;28;20038;-54
2021/12/08 10:23:12;;;;;;;9.90;2.72;;;6.10;99.90;;;;;;4991148;28;20054;-51
2021/12/08 10:25:44;;;;;;;9.05;3.10;;;6.10;99.90;;;;;;4993535;28;20042;-53
2021/12/08 10:28:25;;;;;;;10.27;3.53;;;6.10;99.90;;;;;;4989862;28;20034;-53
2021/12/08 10:30:58;;;;;;;10.38;2.83;;;6.10;99.90;;;;;;4988653;28;20042;-51
2021/12/08 10:39:15;;;;;;;9.73;2.85;;;6.20;99.90;;;;;;4993438;28;20046;-52
2021/12/08 10:42:06;;;;;;;11.90;3.20;;;6.20;99.90;;;;;;4991038;28;20529;-54
2021/12/08 10:44:43;;;;;;;11.35;3.00;;;6.20;99.90;;;;;;4990974;28;20121;-53
2021/12/08 10:47:10;;;;;;;8.90;2.70;;;6.20;99.90;;;;;;4975668;28;20038;-53
2021/12/08 10:54:55;;;;;;;8.48;2.85;;;6.10;99.90;;;;;;4993624;28;20342;-52
2021/12/08 10:57:33;;;;;;;13.40;3.35;;;6.10;99.90;;;;;;4992757;28;20074;-52
2021/12/08 11:00:13;;;;;;;9.10;2.35;;;6.10;99.90;;;;;;4993176;28;20533;-52
2021/12/08 11:02:55;;;;;;;14.27;3.35;;;6.10;99.90;;;;;;4992271;28;20053;-53
2021/12/08 11:05:24;;;;;;;13.02;3.13;;;6.10;99.90;;;;;;4992438;28;20053;-53
2021/12/08 11:08:13;;;;;;;15.32;3.00;;;6.10;99.90;;;;;;4991640;28;20038;-52
2021/12/08 11:10:41;;;;;;;8.23;2.53;;;6.20;99.90;;;;;;4992928;28;20165;-50
2021/12/08 11:13:08;;;;;;;11.20;2.78;;;6.30;99.90;;;;;;4992825;28;20506;-52
2021/12/08 11:15:34;;;;;;;10.85;3.10;;;6.30;99.90;;;;;;4992786;28;20046;-55
2021/12/08 11:18:15;;;;;;;7.28;2.67;;;6.30;99.90;;;;;;4992930;28;20041;-51
2021/12/08 11:20:49;;;;;;;11.40;2.97;;;6.30;99.90;;;;;;4984845;28;20105;-53
2021/12/08 11:23:28;;;;;;;11.77;3.05;;;6.40;99.90;;;;;;4992738;28;20039;-53
2021/12/08 11:25:56;;;;;;;10.93;3.22;;;6.40;99.90;;;;;;4971493;28;20522;-53
2021/12/08 11:28:29;;;;;;;9.45;3.03;;;6.40;99.90;;;;;;4989496;28;20375;-52
2021/12/08 11:31:06;;;;;;;13.93;3.63;;;6.50;99.90;;;;;;4987129;28;20054;-53
2021/12/08 11:33:33;;;;;;;9.95;2.80;;;6.40;99.90;;;;;;4991344;28;20219;-54
2021/12/08 11:36:20;;;;;;;6.80;2.90;;;6.50;99.90;;;;;;4986668;28;20042;-51
2021/12/08 11:38:48;;;;;;;12.52;3.95;;;6.40;99.90;;;;;;4991725;28;20046;-53
2021/12/08 11:41:35;;;;;;;9.38;3.30;;;6.50;99.90;;;;;;4991201;28;20046;-51
2021/12/08 11:44:16;;;;;;;8.60;3.20;;;6.50;99.90;;;;;;4988691;28;20512;-51
2021/12/08 11:46:49;;;;;;;15.95;3.47;;;6.40;99.90;;;;;;4991299;28;20092;-50
2021/12/08 11:49:16;;;;;;;9.02;3.70;;;6.40;99.90;;;;;;4991784;28;20082;-51
2021/12/08 11:51:44;;;;;;;8.48;3.47;;;6.40;99.90;;;;;;4990877;28;20038;-52
2021/12/08 11:54:31;;;;;;;13.65;3.80;;;6.40;99.90;;;;;;4991599;28;20034;-52
2021/12/08 11:57:10;;;;;;;7.25;3.13;;;6.40;99.90;;;;;;4986324;28;20046;-53
2021/12/08 11:59:50;;;;;;;15.18;3.60;;;6.40;99.90;;;;;;4988869;28;20046;-50
2021/12/08 12:02:19;;;;;;;9.38;4.03;;;6.40;99.90;;;;;;4986254;28;20034;-53
2021/12/08 12:04:45;;;;;;;12.13;3.80;;;6.40;99.90;;;;;;4982049;28;20112;-50
2021/12/08 12:07:12;;;;;;;15.27;4.38;;;6.30;99.90;;;;;;4991965;28;20042;-50
2021/12/08 12:09:38;;;;;;;11.13;3.72;;;6.30;99.90;;;;;;4989311;28;20042;-51
2021/12/08 12:12:05;;;;;;;10.77;4.18;;;6.30;99.90;;;;;;4989571;28;20038;-52
2021/12/08 12:14:31;;;;;;;10.20;3.28;;;6.30;99.90;;;;;;4990742;28;20041;-52
2021/12/08 12:16:57;;;;;;;8.52;3.38;;;6.30;99.90;;;;;;4991601;28;20495;-54
2021/12/08 12:19:25;;;;;;;11.48;3.88;;;6.40;99.90;;;;;;4990555;28;20042;-50
2021/12/08 12:22:06;;;;;;;8.75;3.20;;;6.30;99.90;;;;;;4991406;28;20049;-50
2021/12/08 12:25:06;;;;;;;12.95;3.70;;;6.40;99.90;;;;;;4990780;28;20046;-53
2021/12/08 12:28:05;;;;;;;7.70;3.47;;;6.40;99.90;;;;;;5010073;28;20425;-50
2021/12/08 12:30:56;;;;;;;8.77;3.20;;;6.30;99.90;;;;;;4991933;28;20035;-54
2021/12/08 12:33:23;;;;;;;8.02;3.05;;;6.40;99.90;;;;;;4981027;28;20122;-50
2021/12/08 12:35:55;;;;;;;9.68;3.15;;;6.40;99.90;;;;;;4990719;28;20057;-49
2021/12/08 12:38:38;;;;;;;14.82;3.30;;;6.40;99.90;;;;;;4970761;28;20526;-50
2021/12/08 12:41:07;;;;;;;;;;;6.50;99.90;;;;;;4990856;28;20052;-50
2021/12/08 12:43:38;;;;;;;8.02;2.60;;;6.50;99.90;;;;;;4991267;28;20325;-51
2021/12/08 12:46:16;;;;;;;7.85;2.60;;;6.60;99.90;;;;;;4991117;28;20074;-51
2021/12/08 12:48:43;;;;;;;11.82;3.10;;;6.50;99.90;;;;;;4991553;28;20042;-51
2021/12/08 12:51:11;;;;;;;10.25;2.63;;;6.50;99.90;;;;;;4990909;28;20070;-50
2021/12/08 12:53:46;;;;;;;8.40;2.65;;;6.50;99.90;;;;;;4990852;28;20045;-49
2021/12/08 12:56:14;;;;;;;8.63;3.03;;;6.50;99.90;;;;;;4991519;28;20046;-50
2021/12/08 12:58:52;;;;;;;11.02;3.03;;;6.50;99.90;;;;;;4973045;28;20442;-49
2021/12/08 13:01:33;;;;;;;9.10;2.45;;;6.50;99.90;;;;;;4986561;28;20046;-50
2021/12/08 13:04:08;;;;;;;7.45;2.47;;;6.50;99.90;;;;;;4985970;28;20129;-50
2021/12/08 13:06:42;;;;;;;10.68;2.55;;;6.50;99.90;;;;;;4989967;28;20039;-50
2021/12/08 13:09:27;;;;;;;12.13;3.13;;;6.50;99.90;;;;;;4994617;28;20066;-50
2021/12/08 13:12:06;;;;;;;8.82;2.45;;;6.60;99.90;;;;;;4994176;28;20108;-49
2021/12/08 13:14:32;;;;;;;8.60;2.22;;;6.60;99.90;;;;;;4993990;28;20089;-50
2021/12/08 13:17:20;;;;;;;9.75;2.90;;;6.50;99.90;;;;;;4977117;28;20042;-49
2021/12/08 13:19:55;;;;;;;10.15;2.72;;;6.50;99.90;;;;;;4987694;28;20049;-51
2021/12/08 13:22:44;;;;;;;7.68;2.95;;;6.50;99.90;;;;;;4994043;28;20042;-51
2021/12/08 13:26:05;;;;;;;9.00;2.45;;;6.50;99.90;;;;;;4994952;28;20052;-50
2021/12/08 13:31:37;;;;;;;11.25;2.78;;;6.50;99.90;;;;;;4990677;28;20043;-48
2021/12/08 13:34:08;;;;;;;10.20;3.10;;;6.50;99.90;;;;;;4994092;28;20039;-50
2021/12/08 13:36:43;;;;;;;12.60;2.90;;;6.50;99.90;;;;;;4994028;28;20092;-51
2021/12/08 13:39:27;;;;;;;12.75;2.92;;;6.50;99.90;;;;;;4993647;28;20046;-49
2021/12/08 13:42:30;;;;;;;8.25;3.15;;;6.60;99.90;;;;;;4993845;28;20084;-50
2021/12/08 13:45:16;;;;;;;;;;;6.60;99.90;;;;;;4993644;28;20064;-49
2021/12/08 13:47:45;;;;;;;7.05;2.65;;;6.60;99.90;;;;;;4993500;28;20040;-52
2021/12/08 13:50:14;;;;;;;6.88;2.67;;;6.50;99.90;;;;;;4994660;28;20038;-50
2021/12/08 13:52:43;;;;;;;11.73;3.03;;;6.60;99.90;;;;;;4976261;28;20046;-50
2021/12/08 13:55:09;;;;;;;6.80;3.00;;;6.50;99.90;;;;;;4993573;28;20078;-50
2021/12/08 13:57:48;;;;;;;9.55;2.92;;;6.50;99.90;;;;;;4990793;28;20096;-50
2021/12/08 14:00:17;;;;;;;7.75;2.63;;;6.50;99.90;;;;;;4992370;28;20046;-50
2021/12/08 14:02:49;;;;;;;9.88;2.88;;;6.60;99.90;;;;;;4993461;28;20044;-48
2021/12/08 14:05:22;;;;;;;9.45;2.55;;;6.60;99.90;;;;;;4989778;28;20574;-52
2021/12/08 14:07:58;;;;;;;7.15;2.70;;;6.60;99.90;;;;;;4993291;28;20117;-52
2021/12/08 14:10:27;;;;;;;8.15;2.60;;;6.50;99.90;;;;;;5006402;28;20506;-49
2021/12/08 14:12:55;;;;;;;7.05;2.33;;;6.50;99.90;;;;;;4995160;28;20053;-52
2021/12/08 14:15:30;;;;;;;9.02;2.50;;;6.50;99.90;;;;;;4993917;28;20398;-49
2021/12/08 14:18:14;;;;;;;6.50;2.30;;;6.50;99.90;;;;;;4992119;28;20128;-53
2021/12/08 14:20:41;;;;;;;10.75;3.17;;;6.50;99.90;;;;;;4993565;28;20039;-52
2021/12/08 14:23:07;;;;;;;9.75;2.60;;;6.50;99.90;;;;;;4993772;28;20047;-53
2021/12/08 14:25:46;;;;;;;8.38;2.47;;;6.50;99.90;;;;;;4993713;28;20034;-51
2021/12/08 14:28:40;;;;;;;10.18;2.72;;;6.50;99.90;;;;;;4993678;28;20030;-51
2021/12/08 14:31:14;;;;;;;5.60;2.17;;;6.50;99.90;;;;;;4985283;28;20117;-49
2021/12/08 14:33:51;;;;;;;13.48;2.58;;;6.50;99.90;;;;;;4993610;28;20042;-53